Allen,
Ik ben op zoek naar iemend die nmea0183 inhoudelijk goed leest. Ik heb een stukje ingevoegd, waarvan ik vermoed dat de timestamp niet goed is, echter weet ik er niet genoeg vanaf om het aan te wijzen.
$PDKI,LOGSTART
$SDVHW,166.6,T,168.8,M,0.0,N,0.0,K*42
$GPGGA,111119,4213.6033,N,00845.0403,W,1,12,0.70,57,M,52.0,M,,*4B
$WIMWV,170.6,R,0.1,N,A*22
$WIMWV,170.5,T,0.1,N,A*27
$SDHDT,166.6,T*32
$GPZDA,111119,05,11,19,00,00*4D
$WIMWD,337.1,T,339.3,M,0.1,N,0.1,M*56
$GPVTG,1.6,T,3.8,M,0.1,N,0.2,K,A*2C
$PDKI,MINILOGGER,MOT,0,EVT,0*3C
$SDDPT,,,*7B
$SDVHW,166.7,T,168.9,M,0.0,N,0.0,K*42
$GPGGA,111120,4213.6033,N,00845.0402,W,1,12,0.70,57,M,52.0,M,,*40
$WIMWV,170.6,R,0.1,N,A*22
$WIMWV,170.3,T,0.1,N,A*21
$SDHDT,166.8,T*3C
$GPZDA,111120,05,11,19,00,00*47
$WIMWD,337.1,T,339.3,M,0.1,N,0.1,M*56
$GPVTG,2.8,T,5.0,M,0.1,N,0.2,K,A*2F
$PDKI,MINILOGGER,MOT,0,EVT,0*3C
$SDDPT,,,*7B
$SDVHW,166.9,T,169.1,M,0.0,N,0.0,K*45
$GPGGA,111121,4213.6033,N,00845.0401,W,1,12,0.70,57,M,52.0,M,,*42
$WIMWV,170.5,R,0.1,N,A*21
$WIMWV,170.2,T,0.1,N,A*20
$SDHDT,167.0,T*35
$GPZDA,111121,05,11,19,00,00*46
$WIMWD,337.2,T,339.4,M,0.1,N,0.1,M*52
$GPVTG,5.8,T,8.0,M,0.1,N,0.2,K,A*25
$PDKI,MINILOGGER,MOT,0,EVT,0*3C
$SDDPT,,,*7B
$SDVHW,167.2,T,169.4,M,0.0,N,0.0,K*4A
$GPGGA,111122,4213.6034,N,00845.0399,W,1,12,0.70,57,M,52.0,M,,*40
$WIMWV,170.4,R,0.1,N,A*20
$WIMWV,169.9,T,0.1,N,A*23
$SDHDT,167.3,T*36
$GPZDA,111122,05,11,19,00,00*45
$WIMWD,337.2,T,339.4,M,0.1,N,0.1,M*52
$GPVTG,5.5,T,7.7,M,0.1,N,0.2,K,A*20
$PDKI,MINILOGGER,MOT,0,EVT,0*3C
$SDDPT,,,*7B
$SDVHW,167.5,T,169.7,M,0.0,N,0.0,K*4E
$GPGGA,111123,4213.6035,N,00845.0398,W,1,12,0.70,57,M,52.0,M,,*41
$WIMWV,170.3,R,0.1,N,A*27
$WIMWV,169.6,T,0.1,N,A*2C
$SDHDT,167.6,T*33
$GPZDA,111123,05,11,19,00,00*44
$WIMWD,337.3,T,339.5,M,0.1,N,0.1,M*52
$GPVTG,4.1,T,6.2,M,0.1,N,0.2,K,A*21
$PDKI,MINILOGGER,MOT,0,EVT,0*3C
$SDDPT,,,*7B
$SDVHW,167.8,T,170.0,M,0.0,N,0.0,K*4C
$GPGGA,111124,4213.6037,N,00845.0397,W,1,12,0.70,57,M,52.0,M,,*4B
$WIMWV,170.1,R,0.1,N,A*25
$WIMWV,169.4,T,0.1,N,A*2E
$SDHDT,167.9,T*3C
$GPZDA,111124,05,11,19,00,00*43
$WIMWD,337.4,T,339.6,M,0.1,N,0.1,M*56
$GPVTG,3.0,T,5.2,M,0.1,N,0.2,K,A*24
$PDKI,MINILOGGER,MOT,0,EVT,0*3C
$SDDPT,,,*7B
$SDVHW,168.0,T,170.2,M,0.0,N,0.0,K*49
$GPGGA,111125,4213.6039,N,00845.0396,W,1,12,0.70,57,M,52.0,M,,*45
$WIMWV,169.9,R,0.1,N,A*25
$WIMWV,169.2,T,0.1,N,A*28
$SDHDT,168.1,T*3B
$GPZDA,111125,05,11,19,00,00*42
$WIMWD,337.5,T,339.7,M,0.1,N,0.1,M*56
$GPVTG,2.2,T,4.4,M,0.1,N,0.2,K,A*20
$PDKI,MINILOGGER,MOT,0,EVT,0*3C
$SDDPT,,,*7B
$SDVHW,168.2,T,170.4,M,0.0,N,0.0,K*4D
$GPGGA,111126,4213.6040,N,00845.0396,W,1,12,0.70,57,M,52.0,M,,*48
$WIMWV,169.8,R,0.1,N,A*24
$WIMWV,169.2,T,0.1,N,A*28
$SDHDT,168.3,T*39
$GPZDA,111126,05,11,19,00,00*41
$WIMWD,337.6,T,339.8,M,0.1,N,0.1,M*5A
$GPVTG,359.1,T,1.3,M,0.1,N,0.3,K,A*2D
$PDKI,MINILOGGER,MOT,0,EVT,0*3C
$SDDPT,,,*7B
$SDVHW,168.3,T,170.4,M,0.0,N,0.0,K*4C
$GPGGA,111127,4213.6039,N,00845.0396,W,1,12,0.70,57,M,52.0,M,,*47
$WIMWV,169.7,R,0.1,N,A*2B
$WIMWV,169.2,T,0.1,N,A*28
$SDHDT,168.3,T*39
$GPZDA,111127,05,11,19,00,00*40
$WIMWD,337.6,T,339.8,M,0.1,N,0.1,M*5A
$GPVTG,9.7,T,11.9,M,0.2,N,0.3,K,A*15
$PDKI,MINILOGGER,MOT,0,EVT,0*3C
$SDDPT,,,*7B
$SDVHW,168.2,T,170.3,M,0.0,N,0.0,K*4A
$GPGGA,111128,4213.6038,N,00845.0396,W,1,12,0.70,57,M,52.0,M,,*49
$WIMWV,169.6,R,0.1,N,A*2A
$WIMWV,169.4,T,0.1,N,A*2E
$SDHDT,168.2,T*38
$GPZDA,111128,05,11,19,00,00*4F
$WIMWD,337.6,T,339.8,M,0.1,N,0.1,M*5A
$GPVTG,7.2,T,9.4,M,0.1,N,0.3,K,A*29
$PDKI,MINILOGGER,MOT,0,EVT,0*3C
$SDDPT,,,*7B
$SDVHW,167.9,T,170.1,M,0.0,N,0.0,K*4C
$GPGGA,111129,4213.6037,N,00845.0397,W,1,12,0.70,57,M,52.0,M,,*46
$WIMWV,169.6,R,0.1,N,A*2A
$WIMWV,169.7,T,0.1,N,A*2D
$SDHDT,167.9,T*3C
$GPZDA,111129,05,11,19,00,00*4E
$WIMWD,337.6,T,339.7,M,0.1,N,0.1,M*55
$GPVTG,5.3,T,7.5,M,0.1,N,0.2,K,A*24
$PDKI,MINILOGGER,MOT,0,EVT,0*3C
$SDDPT,,,*7B
$SDVHW,167.6,T,169.8,M,0.0,N,0.0,K*42
$GPGGA,111130,4213.6036,N,00845.0398,W,1,12,0.70,56,M,52.0,M,,*41
$WIMWV,169.6,R,0.1,N,A*2A
$WIMWV,170.0,T,0.1,N,A*22
$SDHDT,167.6,T*33
$GPZDA,111130,05,11,19,00,00*46
$WIMWD,337.5,T,339.7,M,0.1,N,0.1,M*56
$GPVTG,0.4,T,2.6,M,0.2,N,0.3,K,A*22
$PDKI,MINILOGGER,MOT,0,EVT,0*3C
$SDDPT,,,*7B
$SDVHW,167.2,T,169.4,M,0.0,N,0.0,K*4A
$GPGGA,111131,4213.6036,N,00845.0398,W,1,12,0.70,56,M,52.0,M,,*40
$WIMWV,169.7,R,0.1,N,A*2B
$WIMWV,170.4,T,0.1,N,A*26
$SDHDT,167.2,T*37
$GPZDA,111131,05,11,19,00,00*47
$WIMWD,337.4,T,339.5,M,0.1,N,0.1,M*55
$GPVTG,0.3,T,2.5,M,0.2,N,0.3,K,A*26
$PDKI,MINILOGGER,MOT,0,EVT,0*3C
$SDDPT,,,*7B
$SDVHW,166.8,T,169.0,M,0.0,N,0.0,K*45
$GPGGA,111132,4213.6036,N,00845.0400,W,1,12,0.70,57,M,52.0,M,,*44
$WIMWV,169.9,R,0.1,N,A*25
$WIMWV,170.6,T,0.1,N,A*24
$SDHDT,166.8,T*3C
$GPZDA,111132,05,11,19,00,00*44
$WIMWD,337.3,T,339.4,M,0.1,N,0.1,M*53
$PDKI,MINILOGGER,MOT,0,EVT,0*3C
$GPVTG,348.1,T,350.3,M,0.1,N,0.3,K,A*2A
$SDDPT,,,*7B
$SDVHW,166.5,T,168.7,M,0.0,N,0.0,K*4E
$GPGGA,111133,4213.6036,N,00845.0401,W,1,12,0.70,57,M,52.0,M,,*44
$WIMWV,170.1,R,0.1,N,A*25
$WIMWV,170.8,T,0.1,N,A*2A
$SDHDT,166.5,T*31
$GPZDA,111133,05,11,19,00,00*45
$WIMWD,337.1,T,339.3,M,0.1,N,0.1,M*56
$PDKI,MINILOGGER,MOT,0,EVT,0*3C
$GPVTG,351.3,T,353.4,M,0.1,N,0.2,K,A*25
$SDDPT,,,*7B
$SDVHW,166.3,T,168.5,M,0.0,N,0.0,K*4A
$GPGGA,111134,4213.6038,N,00845.0403,W,1,12,0.70,57,M,52.0,M,,*4F
$WIMWV,170.2,R,0.1,N,A*26
$WIMWV,170.8,T,0.1,N,A*2A
$SDHDT,166.4,T*30
$GPZDA,111134,05,11,19,00,00*42
$WIMWD,337.1,T,339.2,M,0.1,N,0.1,M*57
$PDKI,MINILOGGER,MOT,0,EVT,0*3C